createdAt,value
2023-01-31T00:04:09.256Z,78.00
2023-01-31T00:14:09.995Z,78.00
2023-01-31T00:24:10.091Z,77.92
2023-01-31T00:34:10.178Z,77.95
2023-01-31T00:44:11.842Z,77.91
2023-01-31T00:54:12.581Z,77.94
2023-01-31T01:04:13.247Z,77.97
2023-01-31T01:14:13.213Z,77.95
2023-01-31T01:24:13.149Z,78.00
2023-01-31T01:34:13.325Z,78.00
2023-01-31T01:44:13.223Z,77.94
2023-01-31T01:54:13.212Z,77.86
2023-01-31T02:04:13.311Z,77.87
2023-01-31T02:14:13.256Z,77.89
2023-01-31T02:24:13.452Z,78.03
2023-01-31T02:34:13.393Z,78.01
2023-01-31T02:44:32.551Z,78.11
2023-01-31T02:54:34.573Z,78.09
2023-01-31T03:04:36.758Z,78.07
2023-01-31T03:14:37.420Z,78.23
2023-01-31T03:24:37.716Z,78.20
2023-01-31T03:34:38.552Z,78.19
2023-01-31T03:44:38.461Z,78.14
2023-01-31T03:54:38.963Z,78.29
2023-01-31T04:04:39.364Z,78.49
2023-01-31T04:14:39.362Z,78.61
2023-01-31T04:24:39.365Z,78.82
2023-01-31T04:34:39.429Z,78.98
2023-01-31T04:44:39.399Z,79.14
2023-01-31T04:54:39.421Z,79.39
2023-01-31T05:04:40.117Z,79.47
2023-01-31T05:14:40.570Z,79.71
2023-01-31T05:24:40.521Z,79.73
2023-01-31T05:34:40.522Z,79.78
2023-01-31T05:44:40.554Z,79.80
2023-01-31T05:54:40.540Z,79.79
2023-01-31T06:04:40.548Z,79.77
2023-01-31T06:14:40.574Z,79.77
2023-01-31T06:24:40.546Z,79.73
2023-01-31T06:34:40.678Z,79.78
2023-01-31T06:44:40.608Z,79.79
2023-01-31T06:54:41.151Z,79.73
2023-01-31T07:04:41.634Z,79.80
2023-01-31T07:14:42.208Z,79.82
2023-01-31T07:24:42.645Z,79.78
2023-01-31T07:34:42.670Z,79.68
2023-01-31T07:44:42.567Z,79.49
2023-01-31T07:54:42.596Z,78.59
2023-01-31T08:04:42.842Z,78.66
2023-01-31T08:14:42.650Z,77.94
2023-01-31T08:24:42.717Z,77.86
2023-01-31T08:34:43.472Z,77.22
2023-01-31T08:44:43.795Z,77.08
2023-01-31T08:54:43.705Z,76.76
2023-01-31T09:04:43.761Z,76.23
2023-01-31T09:14:43.795Z,76.21
2023-01-31T09:24:45.671Z,76.38
2023-01-31T09:34:47.066Z,76.76
2023-01-31T09:44:47.550Z,77.21
2023-01-31T09:54:47.775Z,77.49
2023-01-31T10:04:47.893Z,77.56
2023-01-31T10:14:49.690Z,77.67
2023-01-31T10:24:49.831Z,77.33
2023-01-31T10:34:49.938Z,78.48
2023-01-31T10:44:52.994Z,78.63
2023-01-31T10:54:52.845Z,78.29
2023-01-31T11:04:52.947Z,77.78
2023-01-31T11:14:54.010Z,77.36
2023-01-31T11:24:53.915Z,77.38
2023-01-31T11:34:53.979Z,77.61
2023-01-31T11:44:53.893Z,77.41
2023-01-31T11:54:53.937Z,77.69
2023-01-31T12:04:53.972Z,77.69
2023-01-31T12:14:53.960Z,77.57
2023-01-31T12:24:53.952Z,77.79
2023-01-31T12:35:00.789Z,77.71
2023-01-31T12:44:56.726Z,78.13
2023-01-31T12:54:56.975Z,78.25
2023-01-31T13:04:57.090Z,78.46
2023-01-31T13:14:57.117Z,78.55
2023-01-31T13:24:57.065Z,78.79
2023-01-31T13:34:57.136Z,78.84
2023-01-31T13:44:57.081Z,79.10
2023-01-31T13:55:00.247Z,79.68
2023-01-31T14:05:00.142Z,80.38
2023-01-31T14:15:00.108Z,81.23
2023-01-31T14:25:00.362Z,81.71
2023-01-31T14:35:00.170Z,82.25
2023-01-31T14:45:00.185Z,82.56
2023-01-31T14:55:00.177Z,82.84
2023-01-31T15:04:59.551Z,83.56
2023-01-31T15:15:03.437Z,83.54
2023-01-31T15:25:03.441Z,83.69
2023-01-31T15:35:03.215Z,83.81
2023-01-31T15:45:03.278Z,83.90
2023-01-31T15:55:04.457Z,83.95
2023-01-31T16:05:04.239Z,84.07
2023-01-31T16:15:04.330Z,84.07
2023-01-31T16:25:04.702Z,84.19
2023-01-31T16:35:05.277Z,84.26
2023-01-31T16:45:05.429Z,84.32
2023-01-31T16:55:05.266Z,84.30
2023-01-31T17:05:05.321Z,84.34
2023-01-31T17:15:05.435Z,84.39
2023-01-31T17:25:05.328Z,84.43
2023-01-31T17:35:05.456Z,84.46
2023-01-31T17:45:05.576Z,84.43
2023-01-31T17:55:05.446Z,84.45
2023-01-31T18:05:05.402Z,84.43
2023-01-31T18:15:05.419Z,84.53
2023-01-31T18:25:05.543Z,84.60
2023-01-31T18:35:05.584Z,84.69
2023-01-31T18:45:05.546Z,84.83
2023-01-31T18:55:05.458Z,84.99
2023-01-31T19:05:05.515Z,85.15
2023-01-31T19:15:05.535Z,84.96
2023-01-31T19:25:07.367Z,84.93
2023-01-31T19:35:07.480Z,84.87
2023-01-31T19:45:10.383Z,84.81
2023-01-31T19:55:10.597Z,84.67
2023-01-31T20:05:12.614Z,84.66
2023-01-31T20:15:12.650Z,84.60
2023-01-31T20:25:12.547Z,84.51
2023-01-31T20:35:12.617Z,84.46
2023-01-31T20:45:12.695Z,84.41
2023-01-31T20:55:12.924Z,84.43
2023-01-31T21:05:13.656Z,84.60
2023-01-31T21:15:13.700Z,84.69
2023-01-31T21:25:13.586Z,84.74
2023-01-31T21:35:14.329Z,84.85
2023-01-31T21:45:14.715Z,84.83
2023-01-31T21:55:16.368Z,84.65
2023-01-31T22:05:16.647Z,84.58
2023-01-31T22:15:16.760Z,84.48
2023-01-31T22:25:16.703Z,84.41
2023-01-31T22:35:16.761Z,84.39
2023-01-31T22:45:19.847Z,84.37
2023-01-31T22:55:19.755Z,84.45
2023-01-31T23:05:19.707Z,84.52
2023-01-31T23:15:19.875Z,84.60
2023-01-31T23:25:19.791Z,84.71
2023-01-31T23:35:19.756Z,84.78
2023-01-31T23:45:20.851Z,84.76
2023-01-31T23:55:22.261Z,84.85
